Wilson, Wisconsin
Current Conditions -  °F | °C
As of 10:15 PM on Thursday 27 Nov 2014 (Local Time) from KLUM Reporting Station
Broken Clouds Broken Clouds  
Wind Chill:   Ceiling: 11000
Heat Index:   Visibility: 10mi
Dew Point: -1°   Wind: 5mph
Humidity: 65%   Direction: 150°SSE
Pressure: 30.33"   Gusts: NA
Location:  44.95°N, 92.17°W
Report Text: KLUM 280415Z AUTO 15004KT 10SM BKN110 M13/M18 A3033 RMK AO2 T11271181
Loading
Personal Weather Stations






























Interactive Weather Map New forecast layout! Learn more

10-Day Weather Forecast

Advertisements
Track Severe Weather on mobile